createdAt,value
2022-12-18T00:02:03.254Z,78.09
2022-12-18T00:04:32.549Z,78.42
2022-12-18T00:07:02.983Z,78.47
2022-12-18T00:09:40.138Z,78.42
2022-12-18T00:14:49.461Z,78.30
2022-12-18T00:17:20.679Z,78.40
2022-12-18T00:19:49.956Z,78.42
2022-12-18T00:22:31.308Z,78.73
2022-12-18T00:25:01.286Z,78.76
2022-12-18T00:27:30.691Z,78.68
2022-12-18T00:29:59.539Z,78.65
2022-12-18T00:32:28.505Z,78.74
2022-12-18T00:34:58.629Z,78.84
2022-12-18T00:37:31.794Z,78.90
2022-12-18T00:40:12.554Z,78.64
2022-12-18T00:42:57.571Z,78.72
2022-12-18T00:45:30.015Z,78.70
2022-12-18T00:48:01.659Z,78.81
2022-12-18T00:50:31.708Z,78.86
2022-12-18T00:53:05.106Z,78.85
2022-12-18T00:55:35.422Z,78.81
2022-12-18T00:58:04.883Z,78.84
2022-12-18T01:00:33.755Z,78.89
2022-12-18T01:03:02.690Z,78.80
2022-12-18T01:05:31.559Z,79.08
2022-12-18T01:08:02.220Z,79.08
2022-12-18T01:10:32.479Z,79.18
2022-12-18T01:13:01.267Z,79.55
2022-12-18T01:15:30.109Z,79.36
2022-12-18T01:17:58.960Z,79.44
2022-12-18T01:20:29.297Z,79.29
2022-12-18T01:22:58.073Z,79.42
2022-12-18T01:25:26.844Z,79.83
2022-12-18T01:27:57.292Z,79.86
2022-12-18T01:30:27.640Z,80.14
2022-12-18T01:32:58.143Z,80.25
2022-12-18T01:35:29.106Z,79.94
2022-12-18T01:37:58.717Z,79.84
2022-12-18T01:40:27.718Z,79.68
2022-12-18T01:42:58.547Z,79.62
2022-12-18T01:45:31.721Z,79.41
2022-12-18T01:48:03.927Z,79.53
2022-12-18T01:50:40.571Z,79.48
2022-12-18T01:53:16.158Z,79.26
2022-12-18T01:55:49.055Z,79.04
2022-12-18T01:58:23.578Z,79.10
2022-12-18T02:00:57.269Z,79.00
2022-12-18T02:03:25.960Z,78.89
2022-12-18T02:06:08.236Z,79.01
2022-12-18T02:08:50.750Z,79.08
2022-12-18T02:11:37.010Z,79.23
2022-12-18T02:14:23.487Z,79.33
2022-12-18T02:17:02.304Z,79.22
2022-12-18T02:19:56.228Z,79.20
2022-12-18T02:22:38.015Z,79.20
2022-12-18T02:25:32.143Z,79.51
2022-12-18T02:28:08.569Z,79.31
2022-12-18T02:30:39.989Z,79.44
2022-12-18T02:33:13.432Z,79.41
2022-12-18T02:35:47.009Z,79.55
2022-12-18T02:38:19.077Z,79.56
2022-12-18T02:40:53.413Z,79.79
2022-12-18T02:43:23.749Z,79.86
2022-12-18T02:45:57.181Z,79.82
2022-12-18T02:48:31.547Z,79.86
2022-12-18T02:51:11.643Z,79.96
2022-12-18T02:53:50.403Z,79.94
2022-12-18T02:56:26.957Z,80.10
2022-12-18T02:59:04.890Z,80.07
2022-12-18T03:01:55.168Z,79.70
2022-12-18T03:04:31.864Z,79.83
2022-12-18T03:07:16.405Z,79.75
2022-12-18T03:09:52.374Z,79.55
2022-12-18T03:12:29.140Z,79.44
2022-12-18T03:15:13.207Z,79.32
2022-12-18T03:17:54.763Z,79.46
2022-12-18T03:20:32.773Z,79.39
2022-12-18T03:23:11.366Z,79.27
2022-12-18T03:25:45.142Z,79.10
2022-12-18T03:28:22.642Z,79.04
2022-12-18T03:31:02.666Z,79.08
2022-12-18T03:33:41.126Z,78.88
2022-12-18T03:36:10.758Z,78.70
2022-12-18T03:38:40.853Z,78.64
2022-12-18T03:41:22.220Z,78.81
2022-12-18T03:44:31.224Z,78.96
2022-12-18T03:47:10.402Z,78.86
2022-12-18T03:49:50.255Z,78.84
2022-12-18T03:52:29.181Z,78.83
2022-12-18T03:55:02.273Z,78.75
2022-12-18T03:57:34.411Z,78.76
2022-12-18T04:00:10.479Z,78.61
2022-12-18T04:03:10.036Z,78.73
2022-12-18T04:05:49.492Z,78.71
2022-12-18T04:08:21.962Z,78.71
2022-12-18T04:10:59.714Z,78.62
2022-12-18T04:13:33.956Z,78.65
2022-12-18T04:16:04.930Z,78.76
2022-12-18T04:18:36.613Z,78.74
2022-12-18T04:21:06.478Z,78.89
2022-12-18T04:23:35.681Z,78.79
2022-12-18T04:26:04.910Z,78.70
2022-12-18T04:28:52.660Z,78.70
2022-12-18T04:31:21.528Z,78.81
2022-12-18T04:33:52.031Z,78.90
2022-12-18T04:36:21.065Z,78.98
2022-12-18T04:38:51.601Z,79.08
2022-12-18T04:41:20.699Z,78.84
2022-12-18T04:43:50.925Z,78.84
2022-12-18T04:46:19.861Z,78.97
2022-12-18T04:48:49.466Z,78.77
2022-12-18T04:51:24.762Z,79.10
2022-12-18T04:53:55.611Z,79.18
2022-12-18T04:56:25.092Z,78.93
2022-12-18T04:58:53.927Z,78.97
2022-12-18T05:01:22.698Z,78.96
2022-12-18T05:03:55.981Z,79.06
2022-12-18T05:06:26.145Z,79.04
2022-12-18T05:08:56.225Z,79.09
2022-12-18T05:11:25.077Z,78.96
2022-12-18T05:13:53.798Z,78.92
2022-12-18T05:16:27.377Z,79.21
2022-12-18T05:18:58.096Z,79.44
2022-12-18T05:21:28.263Z,79.53
2022-12-18T05:23:57.038Z,79.62
2022-12-18T05:26:25.746Z,79.49
2022-12-18T05:28:54.408Z,79.45
2022-12-18T05:31:23.935Z,79.44
2022-12-18T05:33:52.718Z,79.40
2022-12-18T05:36:21.402Z,79.44
2022-12-18T05:38:51.479Z,79.44
2022-12-18T05:41:20.205Z,79.26
2022-12-18T05:43:48.995Z,79.14
2022-12-18T05:46:19.759Z,79.24
2022-12-18T05:48:49.366Z,79.26
2022-12-18T05:51:21.992Z,79.32
2022-12-18T05:53:52.103Z,79.19
2022-12-18T05:56:25.279Z,79.26
2022-12-18T05:58:55.729Z,79.35
2022-12-18T06:01:27.595Z,79.54
2022-12-18T06:03:57.784Z,79.41
2022-12-18T06:06:29.607Z,79.44
2022-12-18T06:09:00.252Z,79.50
2022-12-18T06:11:29.696Z,79.61
2022-12-18T06:14:00.265Z,79.74
2022-12-18T06:16:30.751Z,80.00
2022-12-18T06:19:00.530Z,80.21
2022-12-18T06:21:29.867Z,80.00
2022-12-18T06:24:00.500Z,80.27
2022-12-18T06:26:29.361Z,80.61
2022-12-18T06:28:58.236Z,80.71
2022-12-18T06:31:28.435Z,80.68
2022-12-18T06:33:58.000Z,80.57
2022-12-18T06:36:26.944Z,80.68
2022-12-18T06:38:55.620Z,80.41
2022-12-18T06:41:25.909Z,80.55
2022-12-18T06:43:59.560Z,80.50
2022-12-18T06:46:28.960Z,80.48
2022-12-18T06:48:57.733Z,80.53
2022-12-18T06:51:26.919Z,80.57
2022-12-18T06:53:55.573Z,80.52
2022-12-18T06:56:25.825Z,80.45
2022-12-18T06:58:54.923Z,80.49
2022-12-18T07:01:25.099Z,80.76
2022-12-18T07:03:55.904Z,80.66
2022-12-18T07:06:27.506Z,80.74
2022-12-18T07:08:57.310Z,80.95
2022-12-18T07:11:27.437Z,80.87
2022-12-18T07:13:56.587Z,80.74
2022-12-18T07:16:26.126Z,80.92
2022-12-18T07:18:56.267Z,80.94
2022-12-18T07:21:27.007Z,80.84
2022-12-18T07:23:55.949Z,80.78
2022-12-18T07:26:27.387Z,80.83
2022-12-18T07:28:59.134Z,80.74
2022-12-18T07:31:28.865Z,80.77
2022-12-18T07:33:58.073Z,80.70
2022-12-18T07:36:28.529Z,80.80
2022-12-18T07:38:57.355Z,80.68
2022-12-18T07:41:27.390Z,80.65
2022-12-18T07:43:56.040Z,80.46
2022-12-18T07:46:25.136Z,80.38
2022-12-18T07:48:54.074Z,80.58
2022-12-18T07:51:22.955Z,80.43
2022-12-18T07:53:52.413Z,80.44
2022-12-18T07:56:27.776Z,80.47
2022-12-18T07:58:59.485Z,80.59
2022-12-18T08:01:37.391Z,80.65
2022-12-18T08:04:06.559Z,80.57
2022-12-18T08:06:35.287Z,80.56
2022-12-18T08:09:04.611Z,80.58
2022-12-18T08:11:33.615Z,80.65
2022-12-18T08:14:03.711Z,80.43
2022-12-18T08:16:33.702Z,80.34
2022-12-18T08:19:02.722Z,80.57
2022-12-18T08:21:33.349Z,80.37
2022-12-18T08:24:03.783Z,80.21
2022-12-18T08:26:33.705Z,80.39
2022-12-18T08:29:04.264Z,80.40
2022-12-18T08:31:34.053Z,80.50
2022-12-18T08:34:02.973Z,80.59
2022-12-18T08:36:31.715Z,80.54
2022-12-18T08:39:00.408Z,80.57
2022-12-18T08:41:29.228Z,80.59
2022-12-18T08:44:15.447Z,80.69
2022-12-18T08:46:46.521Z,80.40
2022-12-18T08:49:15.688Z,80.38
2022-12-18T08:51:44.540Z,80.40
2022-12-18T08:54:15.166Z,80.36
2022-12-18T08:56:44.018Z,80.22
2022-12-18T08:59:19.157Z,80.14
2022-12-18T09:01:49.968Z,80.10
2022-12-18T09:04:18.888Z,80.17
2022-12-18T09:06:47.622Z,80.46
2022-12-18T09:09:16.395Z,80.53
2022-12-18T09:11:45.159Z,80.48
2022-12-18T09:14:13.817Z,80.07
2022-12-18T09:16:43.500Z,79.90
2022-12-18T09:19:15.592Z,79.89
2022-12-18T09:21:51.976Z,79.82
2022-12-18T09:24:29.283Z,79.84
2022-12-18T09:26:58.315Z,79.62
2022-12-18T09:29:27.111Z,79.45
2022-12-18T09:31:55.850Z,79.53
2022-12-18T09:34:26.140Z,79.31
2022-12-18T09:36:54.975Z,79.44
2022-12-18T09:39:24.487Z,79.26
2022-12-18T09:41:55.813Z,79.18
2022-12-18T09:44:30.222Z,79.26
2022-12-18T09:47:11.740Z,79.08
2022-12-18T09:49:46.109Z,79.14
2022-12-18T09:52:23.925Z,79.20
2022-12-18T09:55:00.244Z,79.28
2022-12-18T09:57:29.164Z,79.11
2022-12-18T10:00:05.452Z,79.04
2022-12-18T10:02:40.850Z,78.99
2022-12-18T10:05:16.452Z,79.10
2022-12-18T10:08:01.907Z,78.88
2022-12-18T10:10:41.829Z,78.89
2022-12-18T10:13:24.095Z,78.89
2022-12-18T10:16:09.741Z,78.94
2022-12-18T10:19:07.205Z,78.65
2022-12-18T10:21:48.162Z,78.83
2022-12-18T10:24:26.930Z,78.40
2022-12-18T10:27:07.111Z,78.43
2022-12-18T10:29:35.875Z,78.40
2022-12-18T10:32:04.676Z,78.33
2022-12-18T10:34:33.418Z,78.41
2022-12-18T10:37:14.125Z,78.49
2022-12-18T10:39:42.811Z,78.33
2022-12-18T10:42:18.449Z,78.24
2022-12-18T10:44:47.686Z,78.04
2022-12-18T10:47:21.300Z,78.21
2022-12-18T10:49:56.098Z,78.17
2022-12-18T10:52:29.645Z,78.06
2022-12-18T10:55:05.167Z,78.20
2022-12-18T10:57:39.104Z,77.85
2022-12-18T11:00:38.175Z,78.19
2022-12-18T11:03:38.063Z,78.47
2022-12-18T11:06:12.855Z,78.41
2022-12-18T11:08:44.364Z,78.36
2022-12-18T11:11:25.215Z,77.96
2022-12-18T11:14:08.936Z,78.03
2022-12-18T11:17:02.986Z,77.94
2022-12-18T11:19:40.855Z,78.41
2022-12-18T11:22:23.874Z,78.24
2022-12-18T11:25:30.657Z,78.43
2022-12-18T11:27:53.265Z,78.37
2022-12-18T11:30:30.683Z,78.50
2022-12-18T11:33:06.458Z,78.55
2022-12-18T11:35:47.850Z,78.66
2022-12-18T11:38:26.461Z,78.90
2022-12-18T11:41:02.772Z,78.99
2022-12-18T11:43:38.013Z,79.19
2022-12-18T11:46:19.414Z,79.07
2022-12-18T11:48:58.728Z,79.13
2022-12-18T11:51:37.526Z,79.26
2022-12-18T11:54:18.146Z,79.86
2022-12-18T11:56:53.482Z,79.78
2022-12-18T11:59:35.384Z,79.59
2022-12-18T12:02:25.397Z,79.54
2022-12-18T12:05:21.243Z,79.74
2022-12-18T12:08:02.059Z,79.89
2022-12-18T12:10:48.914Z,80.01
2022-12-18T12:13:34.735Z,80.14
2022-12-18T12:16:18.846Z,80.11
2022-12-18T12:19:18.618Z,80.27
2022-12-18T12:21:56.672Z,80.23
2022-12-18T12:24:48.097Z,80.50
2022-12-18T12:27:32.245Z,80.58
2022-12-18T12:30:20.960Z,80.85
2022-12-18T12:33:24.584Z,80.68
2022-12-18T12:36:07.698Z,80.82
2022-12-18T12:38:49.880Z,80.85
2022-12-18T12:41:44.506Z,80.87
2022-12-18T12:44:24.238Z,80.81
2022-12-18T12:47:01.669Z,80.85
2022-12-18T12:49:40.453Z,81.10
2022-12-18T12:52:18.953Z,80.96
2022-12-18T12:54:49.430Z,81.05
2022-12-18T12:57:25.520Z,80.97
2022-12-18T13:00:05.488Z,81.13
2022-12-18T13:02:44.919Z,81.13
2022-12-18T13:05:25.840Z,81.14
2022-12-18T13:08:03.809Z,81.19
2022-12-18T13:10:38.860Z,81.32
2022-12-18T13:13:11.052Z,81.38
2022-12-18T13:15:44.263Z,81.40
2022-12-18T13:18:26.480Z,81.56
2022-12-18T13:21:15.025Z,81.56
2022-12-18T13:23:45.160Z,81.61
2022-12-18T13:26:35.419Z,81.41
2022-12-18T13:29:07.196Z,81.48
2022-12-18T13:32:04.052Z,81.59
2022-12-18T13:34:33.809Z,81.67
2022-12-18T13:37:43.014Z,81.72
2022-12-18T13:41:00.327Z,81.77
2022-12-18T13:43:55.168Z,81.66
2022-12-18T13:46:32.930Z,81.63
2022-12-18T13:49:07.582Z,81.67
2022-12-18T13:51:37.763Z,81.83
2022-12-18T13:54:22.283Z,81.79
2022-12-18T13:56:52.228Z,81.91
2022-12-18T13:59:24.903Z,81.76
2022-12-18T14:01:58.740Z,81.61
2022-12-18T14:04:30.693Z,81.62
2022-12-18T14:07:06.463Z,81.75
2022-12-18T14:09:42.094Z,81.89
2022-12-18T14:12:37.034Z,82.31
2022-12-18T14:15:20.282Z,82.50
2022-12-18T14:17:54.049Z,82.70
2022-12-18T14:20:23.546Z,82.56
2022-12-18T14:22:53.470Z,82.61
2022-12-18T14:25:25.533Z,82.73
2022-12-18T14:28:17.921Z,82.58
2022-12-18T14:30:48.591Z,82.54
2022-12-18T14:33:24.773Z,82.54
2022-12-18T14:36:01.740Z,82.67
2022-12-18T14:38:33.507Z,82.40
2022-12-18T14:41:05.685Z,82.44
2022-12-18T14:43:38.074Z,82.49
2022-12-18T14:46:27.965Z,82.65
2022-12-18T14:48:59.459Z,82.68
2022-12-18T14:51:30.523Z,82.60
2022-12-18T14:54:02.560Z,82.74
2022-12-18T14:56:34.985Z,82.87
2022-12-18T14:59:08.108Z,82.81
2022-12-18T15:01:40.487Z,82.79
2022-12-18T15:04:29.187Z,82.89
2022-12-18T15:07:20.105Z,82.82
2022-12-18T15:10:11.673Z,82.80
2022-12-18T15:12:44.383Z,82.89
2022-12-18T15:15:51.343Z,82.82
2022-12-18T15:18:23.023Z,82.67
2022-12-18T15:20:56.212Z,82.66
2022-12-18T15:23:28.625Z,82.74
2022-12-18T15:26:00.939Z,82.97
2022-12-18T15:28:35.896Z,82.76
2022-12-18T15:31:09.161Z,82.45
2022-12-18T15:33:40.666Z,82.20
2022-12-18T15:36:14.719Z,82.20
2022-12-18T15:38:43.707Z,82.08
2022-12-18T15:41:18.918Z,82.24
2022-12-18T15:43:53.136Z,82.34
2022-12-18T15:46:24.639Z,82.38
2022-12-18T15:49:01.377Z,82.60
2022-12-18T15:51:36.329Z,82.49
2022-12-18T15:54:08.834Z,82.49
2022-12-18T15:56:53.980Z,82.55
2022-12-18T15:59:23.765Z,82.34
2022-12-18T16:01:55.252Z,82.27
2022-12-18T16:04:25.864Z,82.10
2022-12-18T16:07:14.564Z,82.09
2022-12-18T16:09:44.094Z,81.78
2022-12-18T16:12:20.219Z,81.86
2022-12-18T16:14:49.389Z,81.82
2022-12-18T16:17:18.438Z,81.90
2022-12-18T16:19:47.298Z,81.99
2022-12-18T16:22:23.878Z,82.02
2022-12-18T16:24:54.025Z,82.21
2022-12-18T16:27:24.224Z,82.20
2022-12-18T16:29:53.487Z,82.20
2022-12-18T16:32:24.489Z,82.24
2022-12-18T16:34:53.467Z,82.22
2022-12-18T16:37:26.611Z,82.03
2022-12-18T16:39:55.730Z,82.20
2022-12-18T16:42:25.412Z,82.26
2022-12-18T16:44:55.701Z,82.20
2022-12-18T16:47:24.470Z,82.28
2022-12-18T16:49:53.705Z,82.39
2022-12-18T16:52:23.545Z,82.51
2022-12-18T16:54:54.453Z,82.50
2022-12-18T16:57:25.339Z,82.34
2022-12-18T16:59:56.071Z,82.62
2022-12-18T17:02:29.414Z,82.74
2022-12-18T17:04:59.832Z,82.86
2022-12-18T17:07:29.468Z,82.92
2022-12-18T17:09:59.708Z,82.97
2022-12-18T17:12:28.596Z,83.17
2022-12-18T17:14:57.372Z,83.08
2022-12-18T17:17:34.647Z,82.95
2022-12-18T17:20:03.437Z,82.99
2022-12-18T17:22:32.509Z,82.85
2022-12-18T17:25:03.135Z,82.98
2022-12-18T17:27:32.061Z,82.98
2022-12-18T17:30:00.695Z,83.11
2022-12-18T17:32:29.616Z,83.17
2022-12-18T17:35:02.583Z,83.17
2022-12-18T17:37:34.425Z,83.29
2022-12-18T17:40:05.176Z,83.34
2022-12-18T17:42:34.141Z,83.25
2022-12-18T17:45:02.889Z,83.65
2022-12-18T17:47:32.534Z,83.70
2022-12-18T17:50:01.274Z,83.86
2022-12-18T17:52:30.494Z,83.91
2022-12-18T17:54:59.336Z,84.04
2022-12-18T17:57:29.750Z,84.08
2022-12-18T17:59:58.522Z,84.08
2022-12-18T18:02:27.526Z,84.45
2022-12-18T18:04:57.260Z,84.70
2022-12-18T18:07:26.037Z,84.59
2022-12-18T18:09:54.824Z,84.86
2022-12-18T18:12:40.668Z,84.88
2022-12-18T18:15:13.007Z,85.07
2022-12-18T18:17:41.698Z,85.23
2022-12-18T18:20:12.203Z,85.42
2022-12-18T18:22:41.049Z,85.44
2022-12-18T18:25:09.923Z,85.51
2022-12-18T18:27:39.506Z,85.67
2022-12-18T18:30:12.447Z,85.49
2022-12-18T18:32:41.427Z,85.67
2022-12-18T18:35:24.553Z,85.85
2022-12-18T18:37:53.486Z,85.70
2022-12-18T18:40:22.567Z,85.68
2022-12-18T18:42:54.065Z,85.86
2022-12-18T18:45:24.278Z,85.61
2022-12-18T18:47:53.036Z,85.62
2022-12-18T18:50:21.766Z,85.49
2022-12-18T18:52:50.493Z,85.47
2022-12-18T18:55:25.493Z,85.69
2022-12-18T18:57:54.799Z,85.67
2022-12-18T19:00:24.953Z,85.66
2022-12-18T19:02:59.020Z,85.61
2022-12-18T19:05:29.342Z,85.68
2022-12-18T19:07:58.586Z,85.63
2022-12-18T19:10:27.355Z,85.82
2022-12-18T19:13:13.575Z,85.61
2022-12-18T19:15:43.801Z,85.63
2022-12-18T19:18:12.695Z,85.73
2022-12-18T19:20:41.699Z,85.65
2022-12-18T19:23:10.588Z,85.63
2022-12-18T19:25:41.585Z,85.62
2022-12-18T19:28:21.188Z,85.87
2022-12-18T19:30:57.330Z,85.88
2022-12-18T19:33:45.382Z,85.83
2022-12-18T19:36:19.633Z,85.72
2022-12-18T19:38:49.326Z,85.63
2022-12-18T19:41:19.242Z,85.61
2022-12-18T19:43:48.856Z,85.75
2022-12-18T19:46:21.806Z,85.75
2022-12-18T19:48:51.689Z,85.63
2022-12-18T19:51:24.003Z,85.65
2022-12-18T19:53:58.398Z,85.67
2022-12-18T19:56:31.017Z,85.45
2022-12-18T19:59:00.306Z,85.27
2022-12-18T20:01:32.664Z,85.49
2022-12-18T20:04:01.967Z,85.52
2022-12-18T20:06:34.576Z,85.42
2022-12-18T20:09:08.310Z,85.27
2022-12-18T20:11:42.011Z,85.37
2022-12-18T20:14:11.434Z,85.44
2022-12-18T20:16:42.788Z,85.44
2022-12-18T20:19:14.360Z,85.20
2022-12-18T20:21:44.564Z,85.27
2022-12-18T20:24:13.561Z,85.45
2022-12-18T20:26:43.365Z,85.35
2022-12-18T20:29:12.161Z,85.41
2022-12-18T20:31:42.410Z,85.26
2022-12-18T20:34:11.196Z,85.37
2022-12-18T20:36:41.077Z,85.26
2022-12-18T20:39:12.247Z,85.41
2022-12-18T20:41:42.078Z,85.54
2022-12-18T20:44:23.554Z,85.53
2022-12-18T20:46:57.757Z,85.61
2022-12-18T20:49:28.251Z,85.45
2022-12-18T20:51:59.526Z,85.31
2022-12-18T20:54:29.263Z,85.15
2022-12-18T20:56:58.716Z,85.21
2022-12-18T20:59:27.567Z,85.09
2022-12-18T21:01:58.174Z,85.01
2022-12-18T21:04:27.155Z,84.90
2022-12-18T21:07:02.430Z,84.97
2022-12-18T21:09:37.857Z,84.97
2022-12-18T21:12:33.498Z,84.98
2022-12-18T21:15:11.229Z,84.93
2022-12-18T21:17:44.774Z,84.87
2022-12-18T21:20:17.276Z,84.80
2022-12-18T21:22:47.063Z,84.70
2022-12-18T21:25:15.789Z,84.85
2022-12-18T21:27:44.614Z,84.82
2022-12-18T21:30:15.090Z,84.76
2022-12-18T21:32:45.361Z,84.55
2022-12-18T21:35:14.134Z,84.64
2022-12-18T21:37:42.803Z,84.48
2022-12-18T21:40:14.047Z,84.53
2022-12-18T21:43:00.090Z,84.54
2022-12-18T21:45:28.846Z,84.42
2022-12-18T21:47:59.124Z,84.41
2022-12-18T21:50:27.879Z,84.49
2022-12-18T21:52:56.579Z,84.56
2022-12-18T21:55:25.397Z,84.77
2022-12-18T21:57:56.828Z,84.93
2022-12-18T22:00:25.836Z,85.04
2022-12-18T22:03:16.995Z,85.15
2022-12-18T22:05:44.659Z,85.19
2022-12-18T22:08:13.762Z,85.38
2022-12-18T22:10:42.890Z,85.55
2022-12-18T22:13:12.171Z,85.54
2022-12-18T22:15:40.884Z,85.69
2022-12-18T22:18:09.819Z,85.78
2022-12-18T22:20:38.565Z,85.89
2022-12-18T22:23:09.242Z,85.79
2022-12-18T22:25:40.096Z,85.96
2022-12-18T22:28:26.177Z,86.21
2022-12-18T22:30:59.527Z,86.35
2022-12-18T22:33:29.527Z,86.45
2022-12-18T22:35:58.280Z,86.65
2022-12-18T22:38:28.823Z,86.48
2022-12-18T22:40:57.924Z,86.66
2022-12-18T22:43:26.690Z,86.51
2022-12-18T22:45:55.556Z,86.65
2022-12-18T22:48:24.443Z,86.72
2022-12-18T22:50:59.337Z,86.64
2022-12-18T22:53:29.951Z,86.42
2022-12-18T22:56:02.707Z,86.31
2022-12-18T22:58:32.079Z,86.27
2022-12-18T23:01:00.827Z,86.30
2022-12-18T23:03:29.909Z,86.08
2022-12-18T23:06:06.066Z,86.02
2022-12-18T23:08:36.705Z,86.14
2022-12-18T23:11:06.657Z,86.15
2022-12-18T23:13:37.553Z,86.13
2022-12-18T23:16:19.410Z,86.15
2022-12-18T23:18:51.636Z,86.18
2022-12-18T23:21:25.699Z,86.30
2022-12-18T23:24:00.114Z,86.50
2022-12-18T23:26:32.141Z,86.45
2022-12-18T23:29:24.427Z,86.67
2022-12-18T23:31:55.095Z,86.74
2022-12-18T23:34:25.199Z,87.06
2022-12-18T23:36:56.230Z,87.18
2022-12-18T23:39:29.599Z,87.23
2022-12-18T23:41:59.438Z,87.26
2022-12-18T23:44:28.796Z,87.33
2022-12-18T23:46:57.521Z,87.41
2022-12-18T23:49:26.329Z,87.50
2022-12-18T23:51:55.778Z,87.49
2022-12-18T23:54:33.466Z,87.78
2022-12-18T23:57:03.238Z,87.68
2022-12-18T23:59:32.237Z,87.90
